sensor_id;sensor_type;location;lat;lon;timestamp;temperature;humidity
10030;DHT22;5055;52.054;8.524;2023-07-31T00:00:49;15.90;97.00
10030;DHT22;5055;52.054;8.524;2023-07-31T00:03:17;15.90;97.00
10030;DHT22;5055;52.054;8.524;2023-07-31T00:05:46;15.90;97.00
10030;DHT22;5055;52.054;8.524;2023-07-31T00:08:14;15.90;97.00
10030;DHT22;5055;52.054;8.524;2023-07-31T00:10:43;15.90;97.00
10030;DHT22;5055;52.054;8.524;2023-07-31T00:13:11;16.00;97.00
10030;DHT22;5055;52.054;8.524;2023-07-31T00:15:41;16.00;97.00
10030;DHT22;5055;52.054;8.524;2023-07-31T00:18:10;16.00;97.00
10030;DHT22;5055;52.054;8.524;2023-07-31T00:20:39;16.00;97.00
10030;DHT22;5055;52.054;8.524;2023-07-31T00:23:07;16.00;97.00
10030;DHT22;5055;52.054;8.524;2023-07-31T00:25:36;16.00;97.00
10030;DHT22;5055;52.054;8.524;2023-07-31T00:28:05;16.00;97.00
10030;DHT22;5055;52.054;8.524;2023-07-31T00:30:34;16.00;97.00
10030;DHT22;5055;52.054;8.524;2023-07-31T00:33:04;16.00;97.00
10030;DHT22;5055;52.054;8.524;2023-07-31T00:35:33;16.00;97.00
10030;DHT22;5055;52.054;8.524;2023-07-31T00:38:02;16.00;97.00
10030;DHT22;5055;52.054;8.524;2023-07-31T00:40:35;16.00;97.00
10030;DHT22;5055;52.054;8.524;2023-07-31T00:43:04;16.00;97.00
10030;DHT22;5055;52.054;8.524;2023-07-31T00:45:33;16.10;97.00
10030;DHT22;5055;52.054;8.524;2023-07-31T00:48:03;16.10;97.00
10030;DHT22;5055;52.054;8.524;2023-07-31T00:50:33;16.10;97.00
10030;DHT22;5055;52.054;8.524;2023-07-31T00:53:03;16.10;97.00
10030;DHT22;5055;52.054;8.524;2023-07-31T00:55:31;16.10;97.00
10030;DHT22;5055;52.054;8.524;2023-07-31T00:58:00;16.10;97.00
10030;DHT22;5055;52.054;8.524;2023-07-31T01:00:28;16.10;97.00
10030;DHT22;5055;52.054;8.524;2023-07-31T01:02:57;16.10;97.00
10030;DHT22;5055;52.054;8.524;2023-07-31T01:05:32;16.00;97.00
10030;DHT22;5055;52.054;8.524;2023-07-31T01:08:06;16.00;97.00
10030;DHT22;5055;52.054;8.524;2023-07-31T01:10:41;16.00;97.00
10030;DHT22;5055;52.054;8.524;2023-07-31T01:13:13;16.00;97.00
10030;DHT22;5055;52.054;8.524;2023-07-31T01:15:42;15.90;97.00
10030;DHT22;5055;52.054;8.524;2023-07-31T01:18:11;15.90;97.00
10030;DHT22;5055;52.054;8.524;2023-07-31T01:20:42;15.90;97.00
10030;DHT22;5055;52.054;8.524;2023-07-31T01:23:28;15.90;97.00
10030;DHT22;5055;52.054;8.524;2023-07-31T01:26:04;15.80;97.00
10030;DHT22;5055;52.054;8.524;2023-07-31T01:28:44;15.80;97.00
10030;DHT22;5055;52.054;8.524;2023-07-31T01:31:18;15.80;97.00
10030;DHT22;5055;52.054;8.524;2023-07-31T01:33:48;15.70;97.00
10030;DHT22;5055;52.054;8.524;2023-07-31T01:36:17;15.70;97.00
10030;DHT22;5055;52.054;8.524;2023-07-31T01:38:46;15.70;97.00
10030;DHT22;5055;52.054;8.524;2023-07-31T01:41:18;15.60;97.00
10030;DHT22;5055;52.054;8.524;2023-07-31T01:43:47;15.60;97.00
10030;DHT22;5055;52.054;8.524;2023-07-31T01:46:16;15.60;97.00
10030;DHT22;5055;52.054;8.524;2023-07-31T01:48:44;15.50;97.00
10030;DHT22;5055;52.054;8.524;2023-07-31T01:51:13;15.50;97.00
10030;DHT22;5055;52.054;8.524;2023-07-31T01:53:41;15.40;97.00
10030;DHT22;5055;52.054;8.524;2023-07-31T01:56:10;15.40;97.00
10030;DHT22;5055;52.054;8.524;2023-07-31T01:58:40;15.40;97.00
10030;DHT22;5055;52.054;8.524;2023-07-31T02:01:08;15.30;97.00
10030;DHT22;5055;52.054;8.524;2023-07-31T02:03:37;15.30;97.00
10030;DHT22;5055;52.054;8.524;2023-07-31T02:06:06;15.30;97.00
10030;DHT22;5055;52.054;8.524;2023-07-31T02:08:34;15.30;97.00
10030;DHT22;5055;52.054;8.524;2023-07-31T02:11:03;15.20;97.00
10030;DHT22;5055;52.054;8.524;2023-07-31T02:13:32;15.20;97.00
10030;DHT22;5055;52.054;8.524;2023-07-31T02:16:02;15.10;97.00
10030;DHT22;5055;52.054;8.524;2023-07-31T02:18:30;15.00;97.00
10030;DHT22;5055;52.054;8.524;2023-07-31T02:20:59;15.00;97.00
10030;DHT22;5055;52.054;8.524;2023-07-31T02:23:27;15.00;97.00
10030;DHT22;5055;52.054;8.524;2023-07-31T02:25:56;15.00;97.00
10030;DHT22;5055;52.054;8.524;2023-07-31T02:28:24;14.90;97.00
10030;DHT22;5055;52.054;8.524;2023-07-31T02:30:53;14.90;97.00
10030;DHT22;5055;52.054;8.524;2023-07-31T02:33:22;14.90;97.00
10030;DHT22;5055;52.054;8.524;2023-07-31T02:35:51;14.90;97.00
10030;DHT22;5055;52.054;8.524;2023-07-31T02:38:19;14.90;97.00
10030;DHT22;5055;52.054;8.524;2023-07-31T02:40:48;14.90;97.00
10030;DHT22;5055;52.054;8.524;2023-07-31T02:43:19;14.80;97.00
10030;DHT22;5055;52.054;8.524;2023-07-31T02:45:51;14.80;97.00
10030;DHT22;5055;52.054;8.524;2023-07-31T02:48:22;14.70;97.00
10030;DHT22;5055;52.054;8.524;2023-07-31T02:50:56;14.70;97.00
10030;DHT22;5055;52.054;8.524;2023-07-31T02:53:31;14.70;97.00
10030;DHT22;5055;52.054;8.524;2023-07-31T02:56:00;14.70;97.00
10030;DHT22;5055;52.054;8.524;2023-07-31T02:58:29;14.70;97.00
10030;DHT22;5055;52.054;8.524;2023-07-31T03:00:58;14.70;97.00
10030;DHT22;5055;52.054;8.524;2023-07-31T03:03:28;14.70;97.00
10030;DHT22;5055;52.054;8.524;2023-07-31T03:05:57;14.70;97.00
10030;DHT22;5055;52.054;8.524;2023-07-31T03:08:26;14.70;97.00
10030;DHT22;5055;52.054;8.524;2023-07-31T03:10:54;14.70;97.00
10030;DHT22;5055;52.054;8.524;2023-07-31T03:13:22;14.70;97.00
10030;DHT22;5055;52.054;8.524;2023-07-31T03:15:51;14.70;97.00
10030;DHT22;5055;52.054;8.524;2023-07-31T03:18:19;14.70;97.00
10030;DHT22;5055;52.054;8.524;2023-07-31T03:20:49;14.70;97.00
10030;DHT22;5055;52.054;8.524;2023-07-31T03:23:18;14.80;97.00
10030;DHT22;5055;52.054;8.524;2023-07-31T03:25:56;14.90;97.00
10030;DHT22;5055;52.054;8.524;2023-07-31T03:28:25;15.00;97.00
10030;DHT22;5055;52.054;8.524;2023-07-31T03:30:53;15.10;97.00
10030;DHT22;5055;52.054;8.524;2023-07-31T03:33:22;15.20;97.00
10030;DHT22;5055;52.054;8.524;2023-07-31T03:35:52;15.30;97.00
10030;DHT22;5055;52.054;8.524;2023-07-31T03:38:20;15.30;97.00
10030;DHT22;5055;52.054;8.524;2023-07-31T03:40:49;15.40;97.00
10030;DHT22;5055;52.054;8.524;2023-07-31T03:43:18;15.40;97.00
10030;DHT22;5055;52.054;8.524;2023-07-31T03:45:46;15.50;97.00
10030;DHT22;5055;52.054;8.524;2023-07-31T03:48:15;15.50;97.00
10030;DHT22;5055;52.054;8.524;2023-07-31T03:50:44;15.60;97.00
10030;DHT22;5055;52.054;8.524;2023-07-31T03:53:13;15.70;97.00
10030;DHT22;5055;52.054;8.524;2023-07-31T03:55:42;15.70;97.00
10030;DHT22;5055;52.054;8.524;2023-07-31T03:58:10;15.80;97.00
10030;DHT22;5055;52.054;8.524;2023-07-31T04:00:40;15.80;97.00
10030;DHT22;5055;52.054;8.524;2023-07-31T04:03:08;15.80;97.00
10030;DHT22;5055;52.054;8.524;2023-07-31T04:05:38;15.90;97.00
10030;DHT22;5055;52.054;8.524;2023-07-31T04:08:07;15.90;97.00
10030;DHT22;5055;52.054;8.524;2023-07-31T04:10:37;15.90;97.00
10030;DHT22;5055;52.054;8.524;2023-07-31T04:13:06;15.90;97.00
10030;DHT22;5055;52.054;8.524;2023-07-31T04:15:34;16.00;97.00
10030;DHT22;5055;52.054;8.524;2023-07-31T04:18:03;15.90;97.00
10030;DHT22;5055;52.054;8.524;2023-07-31T04:20:31;15.90;97.00
10030;DHT22;5055;52.054;8.524;2023-07-31T04:23:00;15.90;97.00
10030;DHT22;5055;52.054;8.524;2023-07-31T04:25:28;15.90;97.00
10030;DHT22;5055;52.054;8.524;2023-07-31T04:27:58;15.90;97.00
10030;DHT22;5055;52.054;8.524;2023-07-31T04:30:26;15.90;97.00
10030;DHT22;5055;52.054;8.524;2023-07-31T04:32:55;15.90;97.00
10030;DHT22;5055;52.054;8.524;2023-07-31T04:35:24;15.90;97.00
10030;DHT22;5055;52.054;8.524;2023-07-31T04:37:52;15.90;97.00
10030;DHT22;5055;52.054;8.524;2023-07-31T04:40:21;15.90;97.00
10030;DHT22;5055;52.054;8.524;2023-07-31T04:42:49;15.90;97.00
10030;DHT22;5055;52.054;8.524;2023-07-31T04:45:19;15.90;97.00
10030;DHT22;5055;52.054;8.524;2023-07-31T04:47:48;15.90;97.00
10030;DHT22;5055;52.054;8.524;2023-07-31T04:50:16;15.90;97.00
10030;DHT22;5055;52.054;8.524;2023-07-31T04:52:45;15.90;97.00
10030;DHT22;5055;52.054;8.524;2023-07-31T04:55:13;15.90;97.00
10030;DHT22;5055;52.054;8.524;2023-07-31T04:57:42;15.90;97.00
10030;DHT22;5055;52.054;8.524;2023-07-31T05:00:11;16.00;97.00
10030;DHT22;5055;52.054;8.524;2023-07-31T05:02:41;16.00;97.00
10030;DHT22;5055;52.054;8.524;2023-07-31T05:05:10;16.00;97.00
10030;DHT22;5055;52.054;8.524;2023-07-31T05:07:38;16.00;97.00
10030;DHT22;5055;52.054;8.524;2023-07-31T05:10:08;16.00;97.00
10030;DHT22;5055;52.054;8.524;2023-07-31T05:12:36;16.00;97.00
10030;DHT22;5055;52.054;8.524;2023-07-31T05:15:06;16.00;97.00
10030;DHT22;5055;52.054;8.524;2023-07-31T05:17:34;16.10;97.00
10030;DHT22;5055;52.054;8.524;2023-07-31T05:20:05;16.10;97.00
10030;DHT22;5055;52.054;8.524;2023-07-31T05:22:34;16.10;97.00
10030;DHT22;5055;52.054;8.524;2023-07-31T05:25:02;16.10;97.00
10030;DHT22;5055;52.054;8.524;2023-07-31T05:27:31;16.10;97.00
10030;DHT22;5055;52.054;8.524;2023-07-31T05:30:00;16.10;97.00
10030;DHT22;5055;52.054;8.524;2023-07-31T05:32:29;16.10;97.00
10030;DHT22;5055;52.054;8.524;2023-07-31T05:34:58;16.10;97.00
10030;DHT22;5055;52.054;8.524;2023-07-31T05:37:28;16.10;97.00
10030;DHT22;5055;52.054;8.524;2023-07-31T05:39:57;16.10;97.00
10030;DHT22;5055;52.054;8.524;2023-07-31T05:42:25;16.20;97.00
10030;DHT22;5055;52.054;8.524;2023-07-31T05:44:54;16.20;97.00
10030;DHT22;5055;52.054;8.524;2023-07-31T05:47:22;16.20;97.00
10030;DHT22;5055;52.054;8.524;2023-07-31T05:49:51;16.20;97.00
10030;DHT22;5055;52.054;8.524;2023-07-31T05:52:20;16.20;97.00
10030;DHT22;5055;52.054;8.524;2023-07-31T05:54:53;16.20;97.00
10030;DHT22;5055;52.054;8.524;2023-07-31T05:57:22;16.20;97.00
10030;DHT22;5055;52.054;8.524;2023-07-31T05:59:50;16.20;97.00
10030;DHT22;5055;52.054;8.524;2023-07-31T06:02:20;16.20;97.00
10030;DHT22;5055;52.054;8.524;2023-07-31T06:04:48;16.30;97.00
10030;DHT22;5055;52.054;8.524;2023-07-31T06:07:17;16.30;97.00
10030;DHT22;5055;52.054;8.524;2023-07-31T06:09:46;16.30;97.00
10030;DHT22;5055;52.054;8.524;2023-07-31T06:12:16;16.20;97.00
10030;DHT22;5055;52.054;8.524;2023-07-31T06:14:45;16.30;97.00
10030;DHT22;5055;52.054;8.524;2023-07-31T06:17:14;16.30;97.00
10030;DHT22;5055;52.054;8.524;2023-07-31T06:19:42;16.30;97.00
10030;DHT22;5055;52.054;8.524;2023-07-31T06:22:11;16.30;97.00
10030;DHT22;5055;52.054;8.524;2023-07-31T06:24:39;16.30;97.00
10030;DHT22;5055;52.054;8.524;2023-07-31T06:27:08;16.30;97.00
10030;DHT22;5055;52.054;8.524;2023-07-31T06:29:37;16.40;97.00
10030;DHT22;5055;52.054;8.524;2023-07-31T06:32:07;16.40;97.00
10030;DHT22;5055;52.054;8.524;2023-07-31T06:34:35;16.40;97.00
10030;DHT22;5055;52.054;8.524;2023-07-31T06:37:04;16.40;97.00
10030;DHT22;5055;52.054;8.524;2023-07-31T06:39:33;16.40;97.00
10030;DHT22;5055;52.054;8.524;2023-07-31T06:42:01;16.40;97.00
10030;DHT22;5055;52.054;8.524;2023-07-31T06:44:30;16.40;97.00
10030;DHT22;5055;52.054;8.524;2023-07-31T06:47:00;16.40;97.00
10030;DHT22;5055;52.054;8.524;2023-07-31T06:49:28;16.40;97.00
10030;DHT22;5055;52.054;8.524;2023-07-31T06:51:57;16.40;97.00
10030;DHT22;5055;52.054;8.524;2023-07-31T06:54:25;16.40;97.00
10030;DHT22;5055;52.054;8.524;2023-07-31T06:56:54;16.40;97.00
10030;DHT22;5055;52.054;8.524;2023-07-31T06:59:22;16.50;97.00
10030;DHT22;5055;52.054;8.524;2023-07-31T07:01:50;16.50;97.00
10030;DHT22;5055;52.054;8.524;2023-07-31T07:04:20;16.50;97.00
10030;DHT22;5055;52.054;8.524;2023-07-31T07:06:48;16.60;97.00
10030;DHT22;5055;52.054;8.524;2023-07-31T07:09:17;16.60;97.00
10030;DHT22;5055;52.054;8.524;2023-07-31T07:11:45;16.60;97.00
10030;DHT22;5055;52.054;8.524;2023-07-31T07:14:14;16.70;97.00
10030;DHT22;5055;52.054;8.524;2023-07-31T07:16:42;16.70;97.00
10030;DHT22;5055;52.054;8.524;2023-07-31T07:19:11;16.80;97.00
10030;DHT22;5055;52.054;8.524;2023-07-31T07:21:40;16.80;97.00
10030;DHT22;5055;52.054;8.524;2023-07-31T07:24:09;16.70;97.00
10030;DHT22;5055;52.054;8.524;2023-07-31T07:26:37;16.70;97.00
10030;DHT22;5055;52.054;8.524;2023-07-31T07:29:06;16.70;97.00
10030;DHT22;5055;52.054;8.524;2023-07-31T07:31:35;16.70;97.00
10030;DHT22;5055;52.054;8.524;2023-07-31T07:34:04;16.80;97.00
10030;DHT22;5055;52.054;8.524;2023-07-31T07:36:33;16.80;97.00
10030;DHT22;5055;52.054;8.524;2023-07-31T07:39:02;16.80;97.00
10030;DHT22;5055;52.054;8.524;2023-07-31T07:41:31;16.80;97.00
10030;DHT22;5055;52.054;8.524;2023-07-31T07:43:59;16.90;97.00
10030;DHT22;5055;52.054;8.524;2023-07-31T07:46:28;16.80;97.00
10030;DHT22;5055;52.054;8.524;2023-07-31T07:48:56;16.80;97.00
10030;DHT22;5055;52.054;8.524;2023-07-31T07:51:25;16.80;97.00
10030;DHT22;5055;52.054;8.524;2023-07-31T07:53:53;16.70;97.00
10030;DHT22;5055;52.054;8.524;2023-07-31T07:56:25;16.60;97.00
10030;DHT22;5055;52.054;8.524;2023-07-31T07:58:54;16.60;97.00
10030;DHT22;5055;52.054;8.524;2023-07-31T08:01:22;16.60;97.00
10030;DHT22;5055;52.054;8.524;2023-07-31T08:03:51;16.60;97.00
10030;DHT22;5055;52.054;8.524;2023-07-31T08:06:19;16.60;97.00
10030;DHT22;5055;52.054;8.524;2023-07-31T08:08:49;16.60;97.00
10030;DHT22;5055;52.054;8.524;2023-07-31T08:11:18;16.70;97.00
10030;DHT22;5055;52.054;8.524;2023-07-31T08:13:48;16.70;97.00
10030;DHT22;5055;52.054;8.524;2023-07-31T08:16:16;16.70;97.00
10030;DHT22;5055;52.054;8.524;2023-07-31T08:18:45;16.70;97.00
10030;DHT22;5055;52.054;8.524;2023-07-31T08:21:14;16.80;97.00
10030;DHT22;5055;52.054;8.524;2023-07-31T08:23:43;16.80;97.00
10030;DHT22;5055;52.054;8.524;2023-07-31T08:26:15;16.80;97.00
10030;DHT22;5055;52.054;8.524;2023-07-31T08:28:43;16.90;97.00
10030;DHT22;5055;52.054;8.524;2023-07-31T08:31:13;17.00;97.00
10030;DHT22;5055;52.054;8.524;2023-07-31T08:33:42;17.10;97.00
10030;DHT22;5055;52.054;8.524;2023-07-31T08:36:10;17.20;97.00
10030;DHT22;5055;52.054;8.524;2023-07-31T08:38:39;17.20;97.00
10030;DHT22;5055;52.054;8.524;2023-07-31T08:41:07;17.20;97.00
10030;DHT22;5055;52.054;8.524;2023-07-31T08:43:36;17.30;97.00
10030;DHT22;5055;52.054;8.524;2023-07-31T08:46:06;17.30;97.00
10030;DHT22;5055;52.054;8.524;2023-07-31T08:48:37;17.30;97.00
10030;DHT22;5055;52.054;8.524;2023-07-31T08:51:06;17.40;97.00
10030;DHT22;5055;52.054;8.524;2023-07-31T08:53:35;17.40;97.00
10030;DHT22;5055;52.054;8.524;2023-07-31T08:56:04;17.50;97.00
10030;DHT22;5055;52.054;8.524;2023-07-31T08:58:35;17.50;97.00
10030;DHT22;5055;52.054;8.524;2023-07-31T09:01:05;17.50;97.00
10030;DHT22;5055;52.054;8.524;2023-07-31T09:03:36;17.40;97.00
10030;DHT22;5055;52.054;8.524;2023-07-31T09:06:06;17.40;97.00
10030;DHT22;5055;52.054;8.524;2023-07-31T09:08:35;17.40;97.00
10030;DHT22;5055;52.054;8.524;2023-07-31T09:11:05;17.30;97.00
10030;DHT22;5055;52.054;8.524;2023-07-31T09:13:34;17.20;97.00
10030;DHT22;5055;52.054;8.524;2023-07-31T09:16:02;17.20;97.00
10030;DHT22;5055;52.054;8.524;2023-07-31T09:18:31;17.30;97.00
10030;DHT22;5055;52.054;8.524;2023-07-31T09:21:05;17.30;97.00
10030;DHT22;5055;52.054;8.524;2023-07-31T09:23:41;17.30;97.00
10030;DHT22;5055;52.054;8.524;2023-07-31T09:26:10;17.30;97.00
10030;DHT22;5055;52.054;8.524;2023-07-31T09:28:38;17.40;97.00
10030;DHT22;5055;52.054;8.524;2023-07-31T09:31:07;17.40;97.00
10030;DHT22;5055;52.054;8.524;2023-07-31T09:33:54;17.40;97.00
10030;DHT22;5055;52.054;8.524;2023-07-31T09:36:24;17.40;97.00
10030;DHT22;5055;52.054;8.524;2023-07-31T09:38:53;17.40;97.00
10030;DHT22;5055;52.054;8.524;2023-07-31T09:41:21;17.50;97.00
10030;DHT22;5055;52.054;8.524;2023-07-31T09:43:53;17.50;97.00
10030;DHT22;5055;52.054;8.524;2023-07-31T09:46:22;17.50;97.00
10030;DHT22;5055;52.054;8.524;2023-07-31T09:49:06;17.60;97.00
10030;DHT22;5055;52.054;8.524;2023-07-31T09:51:38;17.70;97.00
10030;DHT22;5055;52.054;8.524;2023-07-31T09:54:11;17.80;97.00
10030;DHT22;5055;52.054;8.524;2023-07-31T09:56:43;17.80;97.00
10030;DHT22;5055;52.054;8.524;2023-07-31T09:59:14;17.80;97.00
10030;DHT22;5055;52.054;8.524;2023-07-31T10:01:44;17.70;97.00
10030;DHT22;5055;52.054;8.524;2023-07-31T10:04:21;17.70;97.00
10030;DHT22;5055;52.054;8.524;2023-07-31T10:06:57;17.70;97.00
10030;DHT22;5055;52.054;8.524;2023-07-31T10:09:30;17.70;97.00
10030;DHT22;5055;52.054;8.524;2023-07-31T10:12:00;17.70;97.00
10030;DHT22;5055;52.054;8.524;2023-07-31T10:14:31;17.60;97.00
10030;DHT22;5055;52.054;8.524;2023-07-31T10:17:00;17.60;97.00
10030;DHT22;5055;52.054;8.524;2023-07-31T10:19:30;17.50;97.00
10030;DHT22;5055;52.054;8.524;2023-07-31T10:22:04;17.50;97.00
10030;DHT22;5055;52.054;8.524;2023-07-31T10:24:34;17.40;97.00
10030;DHT22;5055;52.054;8.524;2023-07-31T10:27:07;17.40;97.00
10030;DHT22;5055;52.054;8.524;2023-07-31T10:29:36;17.30;97.00
10030;DHT22;5055;52.054;8.524;2023-07-31T10:32:06;17.30;97.00
10030;DHT22;5055;52.054;8.524;2023-07-31T10:34:38;17.40;97.00
10030;DHT22;5055;52.054;8.524;2023-07-31T10:37:23;17.40;97.00
10030;DHT22;5055;52.054;8.524;2023-07-31T10:39:59;17.50;97.00
10030;DHT22;5055;52.054;8.524;2023-07-31T10:42:32;17.50;97.00
10030;DHT22;5055;52.054;8.524;2023-07-31T10:45:03;17.50;97.00
10030;DHT22;5055;52.054;8.524;2023-07-31T10:47:37;17.50;97.00
10030;DHT22;5055;52.054;8.524;2023-07-31T10:50:14;17.40;97.00
10030;DHT22;5055;52.054;8.524;2023-07-31T10:52:47;17.40;97.00
10030;DHT22;5055;52.054;8.524;2023-07-31T10:55:27;17.40;97.00
10030;DHT22;5055;52.054;8.524;2023-07-31T10:57:57;17.50;97.00
10030;DHT22;5055;52.054;8.524;2023-07-31T11:00:27;17.50;97.00
10030;DHT22;5055;52.054;8.524;2023-07-31T11:03:00;17.50;97.00
10030;DHT22;5055;52.054;8.524;2023-07-31T11:05:44;17.50;97.00
10030;DHT22;5055;52.054;8.524;2023-07-31T11:08:16;17.50;97.00
10030;DHT22;5055;52.054;8.524;2023-07-31T11:10:45;17.50;97.00
10030;DHT22;5055;52.054;8.524;2023-07-31T11:13:14;17.50;97.00
10030;DHT22;5055;52.054;8.524;2023-07-31T11:15:43;17.50;97.00
10030;DHT22;5055;52.054;8.524;2023-07-31T11:18:11;17.50;97.00
10030;DHT22;5055;52.054;8.524;2023-07-31T11:20:40;17.60;97.00
10030;DHT22;5055;52.054;8.524;2023-07-31T11:23:09;17.60;97.00
10030;DHT22;5055;52.054;8.524;2023-07-31T11:25:40;17.70;97.00
10030;DHT22;5055;52.054;8.524;2023-07-31T11:28:10;17.70;97.00
10030;DHT22;5055;52.054;8.524;2023-07-31T11:30:40;17.70;97.00
10030;DHT22;5055;52.054;8.524;2023-07-31T11:33:09;17.70;97.00
10030;DHT22;5055;52.054;8.524;2023-07-31T11:35:42;17.70;97.00
10030;DHT22;5055;52.054;8.524;2023-07-31T11:38:14;17.80;97.00
10030;DHT22;5055;52.054;8.524;2023-07-31T11:40:50;17.80;97.00
10030;DHT22;5055;52.054;8.524;2023-07-31T11:43:20;17.80;97.00
10030;DHT22;5055;52.054;8.524;2023-07-31T11:45:50;17.80;97.00
10030;DHT22;5055;52.054;8.524;2023-07-31T11:48:20;17.80;97.00
10030;DHT22;5055;52.054;8.524;2023-07-31T11:50:50;17.90;97.00
10030;DHT22;5055;52.054;8.524;2023-07-31T11:53:21;17.90;97.00
10030;DHT22;5055;52.054;8.524;2023-07-31T11:55:52;17.90;97.00
10030;DHT22;5055;52.054;8.524;2023-07-31T11:58:22;17.90;97.00
10030;DHT22;5055;52.054;8.524;2023-07-31T12:00:52;17.90;97.00
10030;DHT22;5055;52.054;8.524;2023-07-31T12:03:20;17.80;97.00
10030;DHT22;5055;52.054;8.524;2023-07-31T12:05:49;17.90;97.00
10030;DHT22;5055;52.054;8.524;2023-07-31T12:08:21;18.00;97.00
10030;DHT22;5055;52.054;8.524;2023-07-31T12:10:52;18.00;97.00
10030;DHT22;5055;52.054;8.524;2023-07-31T12:13:22;18.00;97.00
10030;DHT22;5055;52.054;8.524;2023-07-31T12:15:54;18.20;97.00
10030;DHT22;5055;52.054;8.524;2023-07-31T12:18:25;18.40;97.00
10030;DHT22;5055;52.054;8.524;2023-07-31T12:20:55;18.40;97.00
10030;DHT22;5055;52.054;8.524;2023-07-31T12:23:25;18.30;97.00
10030;DHT22;5055;52.054;8.524;2023-07-31T12:26:04;18.30;97.00
10030;DHT22;5055;52.054;8.524;2023-07-31T12:28:36;18.20;97.00
10030;DHT22;5055;52.054;8.524;2023-07-31T12:31:06;18.20;97.00
10030;DHT22;5055;52.054;8.524;2023-07-31T12:33:36;18.20;97.00
10030;DHT22;5055;52.054;8.524;2023-07-31T12:36:09;18.20;97.00
10030;DHT22;5055;52.054;8.524;2023-07-31T12:38:41;18.20;97.00
10030;DHT22;5055;52.054;8.524;2023-07-31T12:41:11;18.20;97.00
10030;DHT22;5055;52.054;8.524;2023-07-31T12:43:41;18.30;97.00
10030;DHT22;5055;52.054;8.524;2023-07-31T12:46:10;18.20;97.00
10030;DHT22;5055;52.054;8.524;2023-07-31T12:48:40;18.20;97.00
10030;DHT22;5055;52.054;8.524;2023-07-31T12:51:08;18.10;97.00
10030;DHT22;5055;52.054;8.524;2023-07-31T12:53:36;18.00;97.00
10030;DHT22;5055;52.054;8.524;2023-07-31T12:56:05;17.90;97.00
10030;DHT22;5055;52.054;8.524;2023-07-31T12:58:35;17.90;97.00
10030;DHT22;5055;52.054;8.524;2023-07-31T13:01:05;17.90;97.00
10030;DHT22;5055;52.054;8.524;2023-07-31T13:03:34;17.80;97.00
10030;DHT22;5055;52.054;8.524;2023-07-31T13:06:03;17.80;97.00
10030;DHT22;5055;52.054;8.524;2023-07-31T13:08:32;17.90;97.00
10030;DHT22;5055;52.054;8.524;2023-07-31T13:11:01;18.10;97.00
10030;DHT22;5055;52.054;8.524;2023-07-31T13:13:29;18.30;97.00
10030;DHT22;5055;52.054;8.524;2023-07-31T13:16:00;18.50;97.00
10030;DHT22;5055;52.054;8.524;2023-07-31T13:18:29;18.50;97.00
10030;DHT22;5055;52.054;8.524;2023-07-31T13:20:58;18.80;97.00
10030;DHT22;5055;52.054;8.524;2023-07-31T13:23:26;19.00;97.00
10030;DHT22;5055;52.054;8.524;2023-07-31T13:25:55;19.10;97.00
10030;DHT22;5055;52.054;8.524;2023-07-31T13:28:26;19.20;97.00
10030;DHT22;5055;52.054;8.524;2023-07-31T13:30:55;19.30;97.00
10030;DHT22;5055;52.054;8.524;2023-07-31T13:33:26;19.50;97.00
10030;DHT22;5055;52.054;8.524;2023-07-31T13:36:03;19.60;97.00
10030;DHT22;5055;52.054;8.524;2023-07-31T13:38:32;19.40;97.00
10030;DHT22;5055;52.054;8.524;2023-07-31T13:41:00;19.40;97.00
10030;DHT22;5055;52.054;8.524;2023-07-31T13:43:29;19.30;97.00
10030;DHT22;5055;52.054;8.524;2023-07-31T13:45:58;19.20;97.00
10030;DHT22;5055;52.054;8.524;2023-07-31T13:48:33;19.30;97.00
10030;DHT22;5055;52.054;8.524;2023-07-31T13:51:02;19.30;97.00
10030;DHT22;5055;52.054;8.524;2023-07-31T13:53:31;19.40;97.00
10030;DHT22;5055;52.054;8.524;2023-07-31T13:56:00;19.40;97.00
10030;DHT22;5055;52.054;8.524;2023-07-31T13:58:28;19.40;97.00
10030;DHT22;5055;52.054;8.524;2023-07-31T14:00:57;19.50;97.00
10030;DHT22;5055;52.054;8.524;2023-07-31T14:03:25;19.50;97.00
10030;DHT22;5055;52.054;8.524;2023-07-31T14:05:55;19.50;97.00
10030;DHT22;5055;52.054;8.524;2023-07-31T14:08:24;19.40;97.00
10030;DHT22;5055;52.054;8.524;2023-07-31T14:10:53;19.40;97.00
10030;DHT22;5055;52.054;8.524;2023-07-31T14:13:21;19.30;97.00
10030;DHT22;5055;52.054;8.524;2023-07-31T14:15:50;19.20;97.00
10030;DHT22;5055;52.054;8.524;2023-07-31T14:18:19;19.20;97.00
10030;DHT22;5055;52.054;8.524;2023-07-31T14:20:48;19.20;97.00
10030;DHT22;5055;52.054;8.524;2023-07-31T14:23:18;19.20;97.00
10030;DHT22;5055;52.054;8.524;2023-07-31T14:25:48;19.10;97.00
10030;DHT22;5055;52.054;8.524;2023-07-31T14:28:17;19.10;97.00
10030;DHT22;5055;52.054;8.524;2023-07-31T14:30:46;19.10;97.00
10030;DHT22;5055;52.054;8.524;2023-07-31T14:33:14;19.10;97.00
10030;DHT22;5055;52.054;8.524;2023-07-31T14:35:43;19.20;97.00
10030;DHT22;5055;52.054;8.524;2023-07-31T14:38:12;19.20;97.00
10030;DHT22;5055;52.054;8.524;2023-07-31T14:40:42;19.10;97.00
10030;DHT22;5055;52.054;8.524;2023-07-31T14:43:11;19.10;97.00
10030;DHT22;5055;52.054;8.524;2023-07-31T14:45:40;19.00;97.00
10030;DHT22;5055;52.054;8.524;2023-07-31T14:48:08;19.10;97.00
10030;DHT22;5055;52.054;8.524;2023-07-31T14:50:37;19.10;97.00
10030;DHT22;5055;52.054;8.524;2023-07-31T14:53:05;19.10;97.00
10030;DHT22;5055;52.054;8.524;2023-07-31T14:55:34;19.00;97.00
10030;DHT22;5055;52.054;8.524;2023-07-31T14:58:04;19.00;97.00
10030;DHT22;5055;52.054;8.524;2023-07-31T15:00:33;19.10;97.00
10030;DHT22;5055;52.054;8.524;2023-07-31T15:03:03;19.30;97.00
10030;DHT22;5055;52.054;8.524;2023-07-31T15:05:31;19.30;97.00
10030;DHT22;5055;52.054;8.524;2023-07-31T15:08:00;19.40;97.00
10030;DHT22;5055;52.054;8.524;2023-07-31T15:10:29;19.30;97.00
10030;DHT22;5055;52.054;8.524;2023-07-31T15:12:57;19.30;97.00
10030;DHT22;5055;52.054;8.524;2023-07-31T15:15:27;19.40;97.00
10030;DHT22;5055;52.054;8.524;2023-07-31T15:17:56;19.40;97.00
10030;DHT22;5055;52.054;8.524;2023-07-31T15:20:24;19.40;97.00
10030;DHT22;5055;52.054;8.524;2023-07-31T15:22:53;19.40;97.00
10030;DHT22;5055;52.054;8.524;2023-07-31T15:25:21;19.50;97.00
10030;DHT22;5055;52.054;8.524;2023-07-31T15:27:50;19.50;97.00
10030;DHT22;5055;52.054;8.524;2023-07-31T15:30:18;19.60;97.00
10030;DHT22;5055;52.054;8.524;2023-07-31T15:32:49;19.50;97.00
10030;DHT22;5055;52.054;8.524;2023-07-31T15:35:18;19.40;97.00
10030;DHT22;5055;52.054;8.524;2023-07-31T15:37:48;19.30;97.00
10030;DHT22;5055;52.054;8.524;2023-07-31T15:40:17;19.30;97.00
10030;DHT22;5055;52.054;8.524;2023-07-31T15:42:45;19.20;97.00
10030;DHT22;5055;52.054;8.524;2023-07-31T15:45:14;19.20;97.00
10030;DHT22;5055;52.054;8.524;2023-07-31T15:47:42;19.20;97.00
10030;DHT22;5055;52.054;8.524;2023-07-31T15:50:13;19.20;97.00
10030;DHT22;5055;52.054;8.524;2023-07-31T15:52:41;19.20;97.00
10030;DHT22;5055;52.054;8.524;2023-07-31T15:55:10;19.10;97.00
10030;DHT22;5055;52.054;8.524;2023-07-31T15:57:39;19.00;97.00
10030;DHT22;5055;52.054;8.524;2023-07-31T16:00:08;18.90;97.00